sensor_id;sensor_type;location;lat;lon;timestamp;temperature;humidity
5344;DHT22;2694;48.954;8.928;2024-01-15T00:01:16;-1.70;99.90
5344;DHT22;2694;48.954;8.928;2024-01-15T00:03:43;-1.70;99.90
5344;DHT22;2694;48.954;8.928;2024-01-15T00:06:10;-1.60;99.90
5344;DHT22;2694;48.954;8.928;2024-01-15T00:08:37;-1.50;99.90
5344;DHT22;2694;48.954;8.928;2024-01-15T00:11:04;-1.60;99.90
5344;DHT22;2694;48.954;8.928;2024-01-15T00:13:30;-1.60;99.90
5344;DHT22;2694;48.954;8.928;2024-01-15T00:15:59;-1.60;99.90
5344;DHT22;2694;48.954;8.928;2024-01-15T00:18:25;-1.60;99.90
5344;DHT22;2694;48.954;8.928;2024-01-15T00:20:52;-1.40;99.90
5344;DHT22;2694;48.954;8.928;2024-01-15T00:23:19;-1.50;99.90
5344;DHT22;2694;48.954;8.928;2024-01-15T00:25:46;-1.60;99.90
5344;DHT22;2694;48.954;8.928;2024-01-15T00:28:13;-1.50;99.90
5344;DHT22;2694;48.954;8.928;2024-01-15T00:30:39;-1.50;99.90
5344;DHT22;2694;48.954;8.928;2024-01-15T00:33:08;-1.50;99.90
5344;DHT22;2694;48.954;8.928;2024-01-15T00:35:37;-1.40;99.90
5344;DHT22;2694;48.954;8.928;2024-01-15T00:38:04;-1.40;99.90
5344;DHT22;2694;48.954;8.928;2024-01-15T00:40:35;-1.40;99.90
5344;DHT22;2694;48.954;8.928;2024-01-15T00:43:03;-1.40;99.90
5344;DHT22;2694;48.954;8.928;2024-01-15T00:45:30;-1.40;99.90
5344;DHT22;2694;48.954;8.928;2024-01-15T00:47:57;-1.30;99.90
5344;DHT22;2694;48.954;8.928;2024-01-15T00:50:29;-1.30;99.90
5344;DHT22;2694;48.954;8.928;2024-01-15T00:52:57;-1.30;99.90
5344;DHT22;2694;48.954;8.928;2024-01-15T00:55:28;-1.40;99.90
5344;DHT22;2694;48.954;8.928;2024-01-15T00:57:55;-1.40;99.90
5344;DHT22;2694;48.954;8.928;2024-01-15T01:00:22;-1.40;99.90
5344;DHT22;2694;48.954;8.928;2024-01-15T01:02:48;-1.40;99.90
5344;DHT22;2694;48.954;8.928;2024-01-15T01:05:15;-1.40;99.90
5344;DHT22;2694;48.954;8.928;2024-01-15T01:07:43;-1.30;99.90
5344;DHT22;2694;48.954;8.928;2024-01-15T01:10:10;-1.30;99.90
5344;DHT22;2694;48.954;8.928;2024-01-15T01:12:37;-1.30;99.90
5344;DHT22;2694;48.954;8.928;2024-01-15T01:15:05;-1.30;99.90
5344;DHT22;2694;48.954;8.928;2024-01-15T01:17:32;-1.30;99.90
5344;DHT22;2694;48.954;8.928;2024-01-15T01:19:59;-1.30;99.90
5344;DHT22;2694;48.954;8.928;2024-01-15T01:22:26;-1.40;99.90
5344;DHT22;2694;48.954;8.928;2024-01-15T01:24:54;-1.40;99.90
5344;DHT22;2694;48.954;8.928;2024-01-15T01:27:21;-1.30;99.90
5344;DHT22;2694;48.954;8.928;2024-01-15T01:29:48;-1.30;99.90
5344;DHT22;2694;48.954;8.928;2024-01-15T01:32:15;-1.20;99.90
5344;DHT22;2694;48.954;8.928;2024-01-15T01:34:41;-1.10;99.90
5344;DHT22;2694;48.954;8.928;2024-01-15T01:37:08;-1.20;99.90
5344;DHT22;2694;48.954;8.928;2024-01-15T01:39:35;-1.20;99.90
5344;DHT22;2694;48.954;8.928;2024-01-15T01:42:04;-1.20;99.90
5344;DHT22;2694;48.954;8.928;2024-01-15T01:44:31;-1.30;99.90
5344;DHT22;2694;48.954;8.928;2024-01-15T01:46:58;-1.30;99.90
5344;DHT22;2694;48.954;8.928;2024-01-15T01:49:26;-1.30;99.90
5344;DHT22;2694;48.954;8.928;2024-01-15T01:51:55;-1.30;99.90
5344;DHT22;2694;48.954;8.928;2024-01-15T01:54:23;-1.20;99.90
5344;DHT22;2694;48.954;8.928;2024-01-15T01:56:51;-1.20;99.90
5344;DHT22;2694;48.954;8.928;2024-01-15T01:59:20;-1.20;99.90
5344;DHT22;2694;48.954;8.928;2024-01-15T02:01:48;-1.20;99.90
5344;DHT22;2694;48.954;8.928;2024-01-15T02:04:16;-1.20;99.90
5344;DHT22;2694;48.954;8.928;2024-01-15T02:06:43;-1.10;99.90
5344;DHT22;2694;48.954;8.928;2024-01-15T02:09:11;-1.10;99.90
5344;DHT22;2694;48.954;8.928;2024-01-15T02:11:40;-1.10;99.90
5344;DHT22;2694;48.954;8.928;2024-01-15T02:14:07;-1.10;99.90
5344;DHT22;2694;48.954;8.928;2024-01-15T02:16:36;-1.10;99.90
5344;DHT22;2694;48.954;8.928;2024-01-15T02:19:03;-1.10;99.90
5344;DHT22;2694;48.954;8.928;2024-01-15T02:21:31;-1.10;99.90
5344;DHT22;2694;48.954;8.928;2024-01-15T02:23:59;-1.00;99.90
5344;DHT22;2694;48.954;8.928;2024-01-15T02:26:26;-1.00;99.90
5344;DHT22;2694;48.954;8.928;2024-01-15T02:28:54;-0.90;99.90
5344;DHT22;2694;48.954;8.928;2024-01-15T02:31:20;-1.00;99.90
5344;DHT22;2694;48.954;8.928;2024-01-15T02:33:47;-1.00;99.90
5344;DHT22;2694;48.954;8.928;2024-01-15T02:36:15;-1.00;99.90
5344;DHT22;2694;48.954;8.928;2024-01-15T02:38:42;-1.00;99.90
5344;DHT22;2694;48.954;8.928;2024-01-15T02:41:10;-1.00;99.90
5344;DHT22;2694;48.954;8.928;2024-01-15T02:43:39;-1.10;99.90
5344;DHT22;2694;48.954;8.928;2024-01-15T02:46:06;-1.00;99.90
5344;DHT22;2694;48.954;8.928;2024-01-15T02:48:35;-1.00;99.90
5344;DHT22;2694;48.954;8.928;2024-01-15T02:51:03;-1.00;99.90
5344;DHT22;2694;48.954;8.928;2024-01-15T02:53:29;-1.00;99.90
5344;DHT22;2694;48.954;8.928;2024-01-15T02:55:56;-1.10;99.90
5344;DHT22;2694;48.954;8.928;2024-01-15T02:58:25;-1.00;99.90
5344;DHT22;2694;48.954;8.928;2024-01-15T03:00:51;-1.00;99.90
5344;DHT22;2694;48.954;8.928;2024-01-15T03:03:18;-0.90;99.90
5344;DHT22;2694;48.954;8.928;2024-01-15T03:05:45;-1.00;99.90
5344;DHT22;2694;48.954;8.928;2024-01-15T03:08:12;-0.90;99.90
5344;DHT22;2694;48.954;8.928;2024-01-15T03:10:39;-0.90;99.90
5344;DHT22;2694;48.954;8.928;2024-01-15T03:13:06;-1.00;99.90
5344;DHT22;2694;48.954;8.928;2024-01-15T03:15:34;-0.90;99.90
5344;DHT22;2694;48.954;8.928;2024-01-15T03:18:01;-0.90;99.90
5344;DHT22;2694;48.954;8.928;2024-01-15T03:20:28;-0.90;99.90
5344;DHT22;2694;48.954;8.928;2024-01-15T03:22:54;-0.80;99.90
5344;DHT22;2694;48.954;8.928;2024-01-15T03:25:21;-0.90;99.90
5344;DHT22;2694;48.954;8.928;2024-01-15T03:27:48;-0.80;99.90
5344;DHT22;2694;48.954;8.928;2024-01-15T03:30:15;-0.80;99.90
5344;DHT22;2694;48.954;8.928;2024-01-15T03:32:43;-0.80;99.90
5344;DHT22;2694;48.954;8.928;2024-01-15T03:35:10;-0.90;99.90
5344;DHT22;2694;48.954;8.928;2024-01-15T03:37:37;-0.80;99.90
5344;DHT22;2694;48.954;8.928;2024-01-15T03:40:04;-0.80;99.90
5344;DHT22;2694;48.954;8.928;2024-01-15T03:42:31;-0.80;99.90
5344;DHT22;2694;48.954;8.928;2024-01-15T03:44:59;-0.80;99.90
5344;DHT22;2694;48.954;8.928;2024-01-15T03:47:26;-0.80;99.90
5344;DHT22;2694;48.954;8.928;2024-01-15T03:49:54;-0.80;99.90
5344;DHT22;2694;48.954;8.928;2024-01-15T03:52:21;-0.80;99.90
5344;DHT22;2694;48.954;8.928;2024-01-15T03:54:48;-0.80;99.90
5344;DHT22;2694;48.954;8.928;2024-01-15T03:57:15;-0.70;99.90
5344;DHT22;2694;48.954;8.928;2024-01-15T03:59:41;-0.70;99.90
5344;DHT22;2694;48.954;8.928;2024-01-15T04:02:09;-0.70;99.90
5344;DHT22;2694;48.954;8.928;2024-01-15T04:04:36;-0.80;99.90
5344;DHT22;2694;48.954;8.928;2024-01-15T04:07:04;-0.80;99.90
5344;DHT22;2694;48.954;8.928;2024-01-15T04:09:31;-0.80;99.90
5344;DHT22;2694;48.954;8.928;2024-01-15T04:11:57;-0.70;99.90
5344;DHT22;2694;48.954;8.928;2024-01-15T04:14:24;-0.70;99.90
5344;DHT22;2694;48.954;8.928;2024-01-15T04:16:51;-0.70;99.90
5344;DHT22;2694;48.954;8.928;2024-01-15T04:19:18;-0.70;99.90
5344;DHT22;2694;48.954;8.928;2024-01-15T04:21:45;-0.70;99.90
5344;DHT22;2694;48.954;8.928;2024-01-15T04:24:13;-0.70;99.90
5344;DHT22;2694;48.954;8.928;2024-01-15T04:26:40;-0.70;99.90
5344;DHT22;2694;48.954;8.928;2024-01-15T04:29:06;-0.70;99.90
5344;DHT22;2694;48.954;8.928;2024-01-15T04:31:33;-0.70;99.90
5344;DHT22;2694;48.954;8.928;2024-01-15T04:34:00;-0.70;99.90
5344;DHT22;2694;48.954;8.928;2024-01-15T04:36:27;-0.70;99.90
5344;DHT22;2694;48.954;8.928;2024-01-15T04:38:54;-0.60;99.90
5344;DHT22;2694;48.954;8.928;2024-01-15T04:41:22;-0.60;99.90
5344;DHT22;2694;48.954;8.928;2024-01-15T04:43:49;-0.80;99.90
5344;DHT22;2694;48.954;8.928;2024-01-15T04:46:15;-0.70;99.90
5344;DHT22;2694;48.954;8.928;2024-01-15T04:48:42;-0.60;99.90
5344;DHT22;2694;48.954;8.928;2024-01-15T04:51:09;-0.70;99.90
5344;DHT22;2694;48.954;8.928;2024-01-15T04:53:36;-0.70;99.90
5344;DHT22;2694;48.954;8.928;2024-01-15T04:56:04;-0.70;99.90
5344;DHT22;2694;48.954;8.928;2024-01-15T04:58:32;-0.70;99.90
5344;DHT22;2694;48.954;8.928;2024-01-15T05:00:59;-0.60;99.90
5344;DHT22;2694;48.954;8.928;2024-01-15T05:03:26;-0.60;99.90
5344;DHT22;2694;48.954;8.928;2024-01-15T05:05:53;-0.60;99.90
5344;DHT22;2694;48.954;8.928;2024-01-15T05:08:19;-0.60;99.90
5344;DHT22;2694;48.954;8.928;2024-01-15T05:10:47;-0.50;99.90
5344;DHT22;2694;48.954;8.928;2024-01-15T05:13:13;-0.60;99.90
5344;DHT22;2694;48.954;8.928;2024-01-15T05:15:42;-0.60;99.90
5344;DHT22;2694;48.954;8.928;2024-01-15T05:18:08;-0.60;99.90
5344;DHT22;2694;48.954;8.928;2024-01-15T05:20:35;-0.60;99.90
5344;DHT22;2694;48.954;8.928;2024-01-15T05:23:02;-0.60;99.90
5344;DHT22;2694;48.954;8.928;2024-01-15T05:25:29;-0.40;99.90
5344;DHT22;2694;48.954;8.928;2024-01-15T05:27:56;-0.50;99.90
5344;DHT22;2694;48.954;8.928;2024-01-15T05:30:23;-0.50;99.90
5344;DHT22;2694;48.954;8.928;2024-01-15T05:32:51;-0.40;99.90
5344;DHT22;2694;48.954;8.928;2024-01-15T05:35:18;-0.40;99.90
5344;DHT22;2694;48.954;8.928;2024-01-15T05:37:45;-0.50;99.90
5344;DHT22;2694;48.954;8.928;2024-01-15T05:40:13;-0.40;99.90
5344;DHT22;2694;48.954;8.928;2024-01-15T05:42:40;-0.40;99.90
5344;DHT22;2694;48.954;8.928;2024-01-15T05:45:07;-0.40;99.90
5344;DHT22;2694;48.954;8.928;2024-01-15T05:47:34;-0.40;99.90
5344;DHT22;2694;48.954;8.928;2024-01-15T05:50:03;-0.40;99.90
5344;DHT22;2694;48.954;8.928;2024-01-15T05:52:30;-0.40;99.90
5344;DHT22;2694;48.954;8.928;2024-01-15T05:54:57;-0.30;99.90
5344;DHT22;2694;48.954;8.928;2024-01-15T05:57:24;-0.40;99.90
5344;DHT22;2694;48.954;8.928;2024-01-15T05:59:51;-0.40;99.90
5344;DHT22;2694;48.954;8.928;2024-01-15T06:02:18;-0.50;99.90
5344;DHT22;2694;48.954;8.928;2024-01-15T06:04:45;-0.50;99.90
5344;DHT22;2694;48.954;8.928;2024-01-15T06:07:13;-0.40;99.90
5344;DHT22;2694;48.954;8.928;2024-01-15T06:09:40;-0.40;99.90
5344;DHT22;2694;48.954;8.928;2024-01-15T06:12:08;-0.40;99.90
5344;DHT22;2694;48.954;8.928;2024-01-15T06:14:34;-0.40;99.90
5344;DHT22;2694;48.954;8.928;2024-01-15T06:17:01;-0.30;99.90
5344;DHT22;2694;48.954;8.928;2024-01-15T06:19:28;-0.30;99.90
5344;DHT22;2694;48.954;8.928;2024-01-15T06:21:55;-0.30;99.90
5344;DHT22;2694;48.954;8.928;2024-01-15T06:24:23;-0.30;99.90
5344;DHT22;2694;48.954;8.928;2024-01-15T06:26:50;-0.20;99.90
5344;DHT22;2694;48.954;8.928;2024-01-15T06:29:17;-0.30;99.90
5344;DHT22;2694;48.954;8.928;2024-01-15T06:31:44;-0.30;99.90
5344;DHT22;2694;48.954;8.928;2024-01-15T06:34:11;-0.30;99.90
5344;DHT22;2694;48.954;8.928;2024-01-15T06:36:37;-0.40;99.90
5344;DHT22;2694;48.954;8.928;2024-01-15T06:39:04;-0.40;99.90
5344;DHT22;2694;48.954;8.928;2024-01-15T06:41:33;-0.40;99.90
5344;DHT22;2694;48.954;8.928;2024-01-15T06:43:59;-0.40;99.90
5344;DHT22;2694;48.954;8.928;2024-01-15T06:46:26;-0.50;99.90
5344;DHT22;2694;48.954;8.928;2024-01-15T06:48:53;-0.50;99.90
5344;DHT22;2694;48.954;8.928;2024-01-15T06:51:20;-0.50;99.90
5344;DHT22;2694;48.954;8.928;2024-01-15T06:53:47;-0.60;99.90
5344;DHT22;2694;48.954;8.928;2024-01-15T06:56:13;-0.50;99.90
5344;DHT22;2694;48.954;8.928;2024-01-15T06:58:42;-0.60;99.90
5344;DHT22;2694;48.954;8.928;2024-01-15T07:01:08;-1.80;99.90
5344;DHT22;2694;48.954;8.928;2024-01-15T07:03:35;-0.50;99.90
5344;DHT22;2694;48.954;8.928;2024-01-15T07:06:03;-0.40;99.90
5344;DHT22;2694;48.954;8.928;2024-01-15T07:08:30;-0.60;99.90
5344;DHT22;2694;48.954;8.928;2024-01-15T07:10:56;-0.60;99.90
5344;DHT22;2694;48.954;8.928;2024-01-15T07:13:23;-0.50;99.90
5344;DHT22;2694;48.954;8.928;2024-01-15T07:15:51;-0.60;99.90
5344;DHT22;2694;48.954;8.928;2024-01-15T07:18:18;-0.50;99.90
5344;DHT22;2694;48.954;8.928;2024-01-15T07:20:45;-0.40;99.90
5344;DHT22;2694;48.954;8.928;2024-01-15T07:23:12;-0.50;99.90
5344;DHT22;2694;48.954;8.928;2024-01-15T07:25:39;-0.50;99.90
5344;DHT22;2694;48.954;8.928;2024-01-15T07:28:06;-0.50;99.90
5344;DHT22;2694;48.954;8.928;2024-01-15T07:30:32;-0.20;99.90
5344;DHT22;2694;48.954;8.928;2024-01-15T07:33:01;-0.40;99.90
5344;DHT22;2694;48.954;8.928;2024-01-15T07:35:29;-0.30;99.90
5344;DHT22;2694;48.954;8.928;2024-01-15T07:37:56;-0.20;99.90
5344;DHT22;2694;48.954;8.928;2024-01-15T07:40:23;-0.20;99.90
5344;DHT22;2694;48.954;8.928;2024-01-15T07:42:50;-0.10;99.90
5344;DHT22;2694;48.954;8.928;2024-01-15T07:45:18;-0.20;99.90
5344;DHT22;2694;48.954;8.928;2024-01-15T07:47:44;-0.20;99.90
5344;DHT22;2694;48.954;8.928;2024-01-15T07:50:13;0.00;99.90
5344;DHT22;2694;48.954;8.928;2024-01-15T07:52:40;-0.10;99.90
5344;DHT22;2694;48.954;8.928;2024-01-15T07:55:07;-0.10;99.90
5344;DHT22;2694;48.954;8.928;2024-01-15T07:57:34;-0.10;99.90
5344;DHT22;2694;48.954;8.928;2024-01-15T08:00:02;-0.10;99.90
5344;DHT22;2694;48.954;8.928;2024-01-15T08:02:30;0.00;99.90
5344;DHT22;2694;48.954;8.928;2024-01-15T08:04:58;-0.10;99.90
5344;DHT22;2694;48.954;8.928;2024-01-15T08:07:26;0.00;99.90
5344;DHT22;2694;48.954;8.928;2024-01-15T08:09:53;0.00;99.90
5344;DHT22;2694;48.954;8.928;2024-01-15T08:12:20;0.00;99.90
5344;DHT22;2694;48.954;8.928;2024-01-15T08:14:48;0.00;99.90
5344;DHT22;2694;48.954;8.928;2024-01-15T08:17:14;0.10;99.90
5344;DHT22;2694;48.954;8.928;2024-01-15T08:19:42;0.10;99.90
5344;DHT22;2694;48.954;8.928;2024-01-15T08:22:09;0.10;99.90
5344;DHT22;2694;48.954;8.928;2024-01-15T08:24:37;0.10;99.90
5344;DHT22;2694;48.954;8.928;2024-01-15T08:27:04;0.20;99.90
5344;DHT22;2694;48.954;8.928;2024-01-15T08:29:31;0.20;99.90
5344;DHT22;2694;48.954;8.928;2024-01-15T08:32:00;0.10;99.90
5344;DHT22;2694;48.954;8.928;2024-01-15T08:34:27;0.20;99.90
5344;DHT22;2694;48.954;8.928;2024-01-15T08:36:54;0.20;99.90
5344;DHT22;2694;48.954;8.928;2024-01-15T08:39:20;0.30;99.90
5344;DHT22;2694;48.954;8.928;2024-01-15T08:41:49;0.30;99.90
5344;DHT22;2694;48.954;8.928;2024-01-15T08:44:15;0.40;99.90
5344;DHT22;2694;48.954;8.928;2024-01-15T08:46:42;0.30;99.90
5344;DHT22;2694;48.954;8.928;2024-01-15T08:49:09;0.40;99.90
5344;DHT22;2694;48.954;8.928;2024-01-15T08:51:36;0.50;99.90
5344;DHT22;2694;48.954;8.928;2024-01-15T08:54:03;0.50;99.90
5344;DHT22;2694;48.954;8.928;2024-01-15T08:56:30;0.50;99.90
5344;DHT22;2694;48.954;8.928;2024-01-15T08:58:58;0.50;99.90
5344;DHT22;2694;48.954;8.928;2024-01-15T09:01:25;0.50;99.90
5344;DHT22;2694;48.954;8.928;2024-01-15T09:03:52;0.50;99.90
5344;DHT22;2694;48.954;8.928;2024-01-15T09:06:19;0.50;99.90
5344;DHT22;2694;48.954;8.928;2024-01-15T09:08:46;0.50;99.90
5344;DHT22;2694;48.954;8.928;2024-01-15T09:11:13;0.50;99.90
5344;DHT22;2694;48.954;8.928;2024-01-15T09:13:39;0.60;99.90
5344;DHT22;2694;48.954;8.928;2024-01-15T09:16:08;0.60;99.90
5344;DHT22;2694;48.954;8.928;2024-01-15T09:18:35;0.60;99.90
5344;DHT22;2694;48.954;8.928;2024-01-15T09:21:03;0.60;99.90
5344;DHT22;2694;48.954;8.928;2024-01-15T09:23:29;0.70;99.90
5344;DHT22;2694;48.954;8.928;2024-01-15T09:25:56;0.70;99.90
5344;DHT22;2694;48.954;8.928;2024-01-15T09:28:23;0.80;99.90
5344;DHT22;2694;48.954;8.928;2024-01-15T09:30:50;0.80;99.90
5344;DHT22;2694;48.954;8.928;2024-01-15T09:33:18;0.90;99.90
5344;DHT22;2694;48.954;8.928;2024-01-15T09:35:45;0.90;99.90
5344;DHT22;2694;48.954;8.928;2024-01-15T09:38:12;0.90;99.90
5344;DHT22;2694;48.954;8.928;2024-01-15T09:40:43;0.90;99.90
5344;DHT22;2694;48.954;8.928;2024-01-15T09:43:12;0.90;99.90
5344;DHT22;2694;48.954;8.928;2024-01-15T09:45:39;0.90;99.90
5344;DHT22;2694;48.954;8.928;2024-01-15T09:48:07;0.90;99.90
5344;DHT22;2694;48.954;8.928;2024-01-15T09:50:35;1.00;99.90
5344;DHT22;2694;48.954;8.928;2024-01-15T09:53:03;1.00;99.90
5344;DHT22;2694;48.954;8.928;2024-01-15T09:55:30;1.00;99.90
5344;DHT22;2694;48.954;8.928;2024-01-15T09:58:00;1.10;99.90
5344;DHT22;2694;48.954;8.928;2024-01-15T10:00:28;1.10;99.90
5344;DHT22;2694;48.954;8.928;2024-01-15T10:02:56;1.10;99.90
5344;DHT22;2694;48.954;8.928;2024-01-15T10:05:23;1.10;99.90
5344;DHT22;2694;48.954;8.928;2024-01-15T10:07:51;1.10;99.90
5344;DHT22;2694;48.954;8.928;2024-01-15T10:10:20;1.10;99.90
5344;DHT22;2694;48.954;8.928;2024-01-15T10:12:47;1.10;99.90
5344;DHT22;2694;48.954;8.928;2024-01-15T10:15:14;1.10;99.90
5344;DHT22;2694;48.954;8.928;2024-01-15T10:17:42;1.10;99.90
5344;DHT22;2694;48.954;8.928;2024-01-15T10:20:11;1.10;99.90
5344;DHT22;2694;48.954;8.928;2024-01-15T10:22:41;1.10;99.90
5344;DHT22;2694;48.954;8.928;2024-01-15T10:25:12;1.10;99.90
5344;DHT22;2694;48.954;8.928;2024-01-15T10:27:40;1.10;99.90
5344;DHT22;2694;48.954;8.928;2024-01-15T10:30:08;1.10;99.90
5344;DHT22;2694;48.954;8.928;2024-01-15T10:32:35;1.10;99.90
5344;DHT22;2694;48.954;8.928;2024-01-15T10:35:02;1.10;99.90
5344;DHT22;2694;48.954;8.928;2024-01-15T10:37:32;1.10;99.90
5344;DHT22;2694;48.954;8.928;2024-01-15T10:40:01;1.10;99.90
5344;DHT22;2694;48.954;8.928;2024-01-15T10:42:30;1.00;99.90
5344;DHT22;2694;48.954;8.928;2024-01-15T10:44:57;0.90;99.90
5344;DHT22;2694;48.954;8.928;2024-01-15T10:47:24;0.90;99.90
5344;DHT22;2694;48.954;8.928;2024-01-15T10:49:51;0.80;99.90
5344;DHT22;2694;48.954;8.928;2024-01-15T10:52:18;0.80;99.90
5344;DHT22;2694;48.954;8.928;2024-01-15T10:54:45;0.70;99.90
5344;DHT22;2694;48.954;8.928;2024-01-15T10:57:13;0.70;99.90
5344;DHT22;2694;48.954;8.928;2024-01-15T10:59:43;0.60;99.90
5344;DHT22;2694;48.954;8.928;2024-01-15T11:02:09;0.60;99.90
5344;DHT22;2694;48.954;8.928;2024-01-15T11:04:36;0.40;99.90
5344;DHT22;2694;48.954;8.928;2024-01-15T11:07:05;0.40;99.90
5344;DHT22;2694;48.954;8.928;2024-01-15T11:09:33;0.40;99.90
5344;DHT22;2694;48.954;8.928;2024-01-15T11:12:07;0.40;99.90
5344;DHT22;2694;48.954;8.928;2024-01-15T11:14:38;0.40;99.90
5344;DHT22;2694;48.954;8.928;2024-01-15T11:17:06;0.40;99.90
5344;DHT22;2694;48.954;8.928;2024-01-15T11:19:42;0.40;99.90
5344;DHT22;2694;48.954;8.928;2024-01-15T11:22:10;0.40;99.90
5344;DHT22;2694;48.954;8.928;2024-01-15T11:24:38;0.40;99.90
5344;DHT22;2694;48.954;8.928;2024-01-15T11:27:06;0.40;99.90
5344;DHT22;2694;48.954;8.928;2024-01-15T11:29:34;0.40;99.90
5344;DHT22;2694;48.954;8.928;2024-01-15T11:32:06;0.40;99.90
5344;DHT22;2694;48.954;8.928;2024-01-15T11:34:56;0.40;99.90
5344;DHT22;2694;48.954;8.928;2024-01-15T11:37:28;0.40;99.90
5344;DHT22;2694;48.954;8.928;2024-01-15T11:39:59;0.40;99.90
5344;DHT22;2694;48.954;8.928;2024-01-15T11:42:27;0.50;99.90
5344;DHT22;2694;48.954;8.928;2024-01-15T11:44:54;0.50;99.90
5344;DHT22;2694;48.954;8.928;2024-01-15T11:50:15;0.50;99.90
5344;DHT22;2694;48.954;8.928;2024-01-15T11:52:50;0.40;99.90
5344;DHT22;2694;48.954;8.928;2024-01-15T11:55:22;0.40;99.90
5344;DHT22;2694;48.954;8.928;2024-01-15T11:57:54;0.40;99.90
5344;DHT22;2694;48.954;8.928;2024-01-15T12:00:22;0.30;99.90
5344;DHT22;2694;48.954;8.928;2024-01-15T12:02:50;0.40;99.90
5344;DHT22;2694;48.954;8.928;2024-01-15T12:05:18;0.40;99.90
5344;DHT22;2694;48.954;8.928;2024-01-15T12:07:46;0.40;99.90
5344;DHT22;2694;48.954;8.928;2024-01-15T12:10:15;0.40;99.90
5344;DHT22;2694;48.954;8.928;2024-01-15T12:12:54;0.40;99.90
5344;DHT22;2694;48.954;8.928;2024-01-15T12:15:24;0.50;99.90
5344;DHT22;2694;48.954;8.928;2024-01-15T12:17:52;0.50;99.90
5344;DHT22;2694;48.954;8.928;2024-01-15T12:20:21;0.50;99.90
5344;DHT22;2694;48.954;8.928;2024-01-15T12:22:48;0.50;99.90
5344;DHT22;2694;48.954;8.928;2024-01-15T12:25:14;0.50;99.90
5344;DHT22;2694;48.954;8.928;2024-01-15T12:27:41;0.60;99.90
5344;DHT22;2694;48.954;8.928;2024-01-15T12:30:11;0.60;99.90
5344;DHT22;2694;48.954;8.928;2024-01-15T12:32:38;0.60;99.90
5344;DHT22;2694;48.954;8.928;2024-01-15T12:35:08;0.50;99.90
5344;DHT22;2694;48.954;8.928;2024-01-15T12:37:35;0.50;99.90
5344;DHT22;2694;48.954;8.928;2024-01-15T12:40:02;0.70;99.90
5344;DHT22;2694;48.954;8.928;2024-01-15T12:42:30;0.60;99.90
5344;DHT22;2694;48.954;8.928;2024-01-15T12:44:57;0.60;99.90
5344;DHT22;2694;48.954;8.928;2024-01-15T12:47:23;0.70;99.90
5344;DHT22;2694;48.954;8.928;2024-01-15T12:49:52;0.70;99.90
5344;DHT22;2694;48.954;8.928;2024-01-15T12:52:21;0.70;99.90
5344;DHT22;2694;48.954;8.928;2024-01-15T12:54:49;0.70;99.90
5344;DHT22;2694;48.954;8.928;2024-01-15T12:57:16;0.70;99.90
5344;DHT22;2694;48.954;8.928;2024-01-15T12:59:43;0.60;99.90
5344;DHT22;2694;48.954;8.928;2024-01-15T13:02:10;0.60;99.90
5344;DHT22;2694;48.954;8.928;2024-01-15T13:04:37;0.70;99.90
5344;DHT22;2694;48.954;8.928;2024-01-15T13:07:05;0.70;99.90
5344;DHT22;2694;48.954;8.928;2024-01-15T13:09:33;0.70;99.90
5344;DHT22;2694;48.954;8.928;2024-01-15T13:12:01;0.70;99.90
5344;DHT22;2694;48.954;8.928;2024-01-15T13:14:28;0.70;99.90
5344;DHT22;2694;48.954;8.928;2024-01-15T13:16:55;0.70;99.90
5344;DHT22;2694;48.954;8.928;2024-01-15T13:19:24;0.70;99.90
5344;DHT22;2694;48.954;8.928;2024-01-15T13:21:51;0.70;99.90
5344;DHT22;2694;48.954;8.928;2024-01-15T13:24:19;0.80;99.90
5344;DHT22;2694;48.954;8.928;2024-01-15T13:26:47;0.80;99.90
5344;DHT22;2694;48.954;8.928;2024-01-15T13:29:14;0.90;99.90
5344;DHT22;2694;48.954;8.928;2024-01-15T13:31:41;0.90;99.90
5344;DHT22;2694;48.954;8.928;2024-01-15T13:34:08;0.80;99.90
5344;DHT22;2694;48.954;8.928;2024-01-15T13:36:35;0.80;99.90
5344;DHT22;2694;48.954;8.928;2024-01-15T13:39:04;0.80;99.90
5344;DHT22;2694;48.954;8.928;2024-01-15T13:41:34;0.80;99.90
5344;DHT22;2694;48.954;8.928;2024-01-15T13:44:02;0.80;99.90
5344;DHT22;2694;48.954;8.928;2024-01-15T13:46:29;0.80;99.90
5344;DHT22;2694;48.954;8.928;2024-01-15T13:48:56;0.80;99.90
5344;DHT22;2694;48.954;8.928;2024-01-15T13:51:23;0.80;99.90
5344;DHT22;2694;48.954;8.928;2024-01-15T13:53:51;0.80;99.90
5344;DHT22;2694;48.954;8.928;2024-01-15T13:56:18;0.80;99.90
5344;DHT22;2694;48.954;8.928;2024-01-15T13:58:46;0.80;99.90
5344;DHT22;2694;48.954;8.928;2024-01-15T14:01:15;0.80;99.90
5344;DHT22;2694;48.954;8.928;2024-01-15T14:03:43;0.70;99.90
5344;DHT22;2694;48.954;8.928;2024-01-15T14:06:09;0.70;99.90
5344;DHT22;2694;48.954;8.928;2024-01-15T14:08:36;0.80;99.90
5344;DHT22;2694;48.954;8.928;2024-01-15T14:11:04;0.70;99.90
5344;DHT22;2694;48.954;8.928;2024-01-15T14:13:31;0.70;99.90
5344;DHT22;2694;48.954;8.928;2024-01-15T14:15:58;0.70;99.90
5344;DHT22;2694;48.954;8.928;2024-01-15T14:18:26;0.60;99.90
5344;DHT22;2694;48.954;8.928;2024-01-15T14:20:54;0.60;99.90
5344;DHT22;2694;48.954;8.928;2024-01-15T14:23:20;0.60;99.90
5344;DHT22;2694;48.954;8.928;2024-01-15T14:25:47;0.60;99.90
5344;DHT22;2694;48.954;8.928;2024-01-15T14:28:14;0.70;99.90
5344;DHT22;2694;48.954;8.928;2024-01-15T14:30:41;0.70;99.90
5344;DHT22;2694;48.954;8.928;2024-01-15T14:33:08;0.70;99.90
5344;DHT22;2694;48.954;8.928;2024-01-15T14:35:36;0.70;99.90
5344;DHT22;2694;48.954;8.928;2024-01-15T14:38:03;0.70;99.90
5344;DHT22;2694;48.954;8.928;2024-01-15T14:40:30;0.80;99.90
5344;DHT22;2694;48.954;8.928;2024-01-15T14:42:58;0.70;99.90
5344;DHT22;2694;48.954;8.928;2024-01-15T14:45:25;0.70;99.90
5344;DHT22;2694;48.954;8.928;2024-01-15T14:47:52;0.70;99.90
5344;DHT22;2694;48.954;8.928;2024-01-15T14:50:19;0.70;99.90
5344;DHT22;2694;48.954;8.928;2024-01-15T14:52:47;0.70;99.90
5344;DHT22;2694;48.954;8.928;2024-01-15T14:55:14;0.60;99.90
5344;DHT22;2694;48.954;8.928;2024-01-15T14:57:41;0.60;99.90
5344;DHT22;2694;48.954;8.928;2024-01-15T15:00:08;0.60;99.90
5344;DHT22;2694;48.954;8.928;2024-01-15T15:02:37;0.50;99.90
5344;DHT22;2694;48.954;8.928;2024-01-15T15:05:05;0.60;99.90
5344;DHT22;2694;48.954;8.928;2024-01-15T15:07:32;0.60;99.90
5344;DHT22;2694;48.954;8.928;2024-01-15T15:10:01;0.70;99.90
5344;DHT22;2694;48.954;8.928;2024-01-15T15:12:27;0.70;99.90
5344;DHT22;2694;48.954;8.928;2024-01-15T15:14:54;0.70;99.90
5344;DHT22;2694;48.954;8.928;2024-01-15T15:17:21;0.70;99.90
5344;DHT22;2694;48.954;8.928;2024-01-15T15:19:48;0.70;99.90
5344;DHT22;2694;48.954;8.928;2024-01-15T15:22:15;0.70;99.90
5344;DHT22;2694;48.954;8.928;2024-01-15T15:24:41;0.70;99.90
5344;DHT22;2694;48.954;8.928;2024-01-15T15:27:11;0.60;99.90
5344;DHT22;2694;48.954;8.928;2024-01-15T15:29:37;0.50;99.90
5344;DHT22;2694;48.954;8.928;2024-01-15T15:32:04;0.50;99.90
5344;DHT22;2694;48.954;8.928;2024-01-15T15:34:31;0.50;99.90
5344;DHT22;2694;48.954;8.928;2024-01-15T15:36:58;0.50;99.90
5344;DHT22;2694;48.954;8.928;2024-01-15T15:39:25;0.50;99.90
5344;DHT22;2694;48.954;8.928;2024-01-15T15:41:52;0.50;99.90
5344;DHT22;2694;48.954;8.928;2024-01-15T15:44:20;0.40;99.90
5344;DHT22;2694;48.954;8.928;2024-01-15T15:46:47;0.40;99.90
5344;DHT22;2694;48.954;8.928;2024-01-15T15:49:13;0.40;99.90
5344;DHT22;2694;48.954;8.928;2024-01-15T15:51:40;0.40;99.90
5344;DHT22;2694;48.954;8.928;2024-01-15T15:54:07;0.40;99.90
5344;DHT22;2694;48.954;8.928;2024-01-15T15:56:34;0.40;99.90
5344;DHT22;2694;48.954;8.928;2024-01-15T15:59:04;0.40;99.90
5344;DHT22;2694;48.954;8.928;2024-01-15T16:01:32;0.30;99.90
5344;DHT22;2694;48.954;8.928;2024-01-15T16:03:59;0.30;99.90
5344;DHT22;2694;48.954;8.928;2024-01-15T16:06:26;0.30;99.90
5344;DHT22;2694;48.954;8.928;2024-01-15T16:08:53;0.20;99.90
5344;DHT22;2694;48.954;8.928;2024-01-15T16:11:20;0.20;99.90
5344;DHT22;2694;48.954;8.928;2024-01-15T16:13:48;0.20;99.90